createdAt,value
2023-02-03T00:00:07.292Z,1.05
2023-02-03T00:02:35.190Z,0.95
2023-02-03T00:05:03.456Z,0.94
2023-02-03T00:07:31.288Z,0.88
2023-02-03T00:09:59.692Z,0.93
2023-02-03T00:12:27.651Z,0.80
2023-02-03T00:14:55.454Z,0.79
2023-02-03T00:17:23.674Z,0.80
2023-02-03T00:19:51.673Z,0.86
2023-02-03T00:22:19.490Z,0.87
2023-02-03T00:24:47.571Z,0.82
2023-02-03T00:27:15.722Z,1.00
2023-02-03T00:29:43.974Z,0.87
2023-02-03T00:32:11.749Z,0.89
2023-02-03T00:34:41.281Z,0.80
2023-02-03T00:37:09.273Z,0.72
2023-02-03T00:39:37.622Z,0.76
2023-02-03T00:42:06.632Z,0.88
2023-02-03T00:44:34.542Z,0.74
2023-02-03T00:47:02.237Z,0.69
2023-02-03T00:49:33.108Z,0.64
2023-02-03T00:52:00.951Z,0.70
2023-02-03T00:54:28.918Z,0.66
2023-02-03T00:56:58.247Z,0.68
2023-02-03T00:59:25.886Z,0.75
2023-02-03T01:01:55.890Z,0.68
2023-02-03T01:04:24.295Z,0.58
2023-02-03T01:06:54.788Z,0.58
2023-02-03T01:09:22.854Z,0.68
2023-02-03T01:11:50.521Z,0.70
2023-02-03T01:14:18.672Z,0.54
2023-02-03T01:16:46.680Z,0.50
2023-02-03T01:19:15.587Z,0.57
2023-02-03T01:21:43.825Z,0.51
2023-02-03T01:24:11.625Z,0.52
2023-02-03T01:26:40.911Z,0.58
2023-02-03T01:29:09.531Z,0.47
2023-02-03T01:31:41.645Z,0.60
2023-02-03T01:34:13.815Z,0.50
2023-02-03T01:36:41.871Z,0.45
2023-02-03T01:39:10.736Z,0.47
2023-02-03T01:41:40.221Z,0.63
2023-02-03T01:44:45.551Z,0.66
2023-02-03T01:47:40.833Z,0.76
2023-02-03T01:50:22.867Z,0.58
2023-02-03T01:52:59.429Z,0.47
2023-02-03T01:55:36.113Z,0.57
2023-02-03T01:58:08.222Z,0.48
2023-02-03T02:00:36.152Z,0.39
2023-02-03T02:03:06.257Z,0.41
2023-02-03T02:06:02.067Z,0.40
2023-02-03T02:08:31.088Z,0.33
2023-02-03T02:11:05.998Z,0.40
2023-02-03T02:13:37.256Z,0.54
2023-02-03T02:16:17.802Z,0.51
2023-02-03T02:19:33.477Z,0.37
2023-02-03T02:22:33.196Z,0.32
2023-02-03T02:25:10.685Z,0.36
2023-02-03T02:28:31.550Z,0.24
2023-02-03T02:31:26.139Z,0.46
2023-02-03T02:34:10.537Z,0.50
2023-02-03T02:37:01.194Z,0.44
2023-02-03T02:39:35.267Z,0.43
2023-02-03T02:42:31.408Z,0.30
2023-02-03T02:45:09.873Z,0.32
2023-02-03T02:47:40.309Z,0.37
2023-02-03T02:50:30.522Z,0.46
2023-02-03T02:52:59.078Z,0.44
2023-02-03T02:55:32.621Z,0.57
2023-02-03T02:58:07.823Z,0.34
2023-02-03T03:00:37.160Z,0.32
2023-02-03T03:03:20.302Z,0.40
2023-02-03T03:05:56.505Z,0.37
2023-02-03T03:08:37.951Z,0.26
2023-02-03T03:11:06.337Z,0.35
2023-02-03T03:13:46.884Z,0.23
2023-02-03T03:16:21.992Z,0.24
2023-02-03T03:18:52.844Z,0.27
2023-02-03T03:21:30.777Z,0.29
2023-02-03T03:24:04.975Z,0.30
2023-02-03T03:26:52.980Z,0.21
2023-02-03T03:29:35.457Z,0.18
2023-02-03T03:32:09.504Z,0.29
2023-02-03T03:34:38.685Z,0.15
2023-02-03T03:37:32.821Z,0.12
2023-02-03T03:40:17.694Z,0.22
2023-02-03T03:43:04.537Z,0.03
2023-02-03T03:45:41.134Z,-0.01
2023-02-03T03:48:17.907Z,0.02
2023-02-03T03:51:05.782Z,0.02
2023-02-03T03:53:43.646Z,0.01
2023-02-03T03:56:21.663Z,0.11
2023-02-03T03:58:55.444Z,0.08
2023-02-03T04:01:24.637Z,0.06
2023-02-03T04:04:04.309Z,0.19
2023-02-03T04:06:34.278Z,0.11
2023-02-03T04:09:16.341Z,0.12
2023-02-03T04:12:02.380Z,-0.11
2023-02-03T04:14:32.681Z,-0.14
2023-02-03T04:17:01.248Z,-0.13
2023-02-03T04:19:29.191Z,-0.07
2023-02-03T04:30:29.165Z,-0.09
2023-02-03T04:33:00.442Z,-0.19
2023-02-03T04:35:38.426Z,-0.25
2023-02-03T04:38:11.271Z,-0.32
2023-02-03T04:40:45.925Z,-0.18
2023-02-03T04:43:15.379Z,-0.23
2023-02-03T04:45:43.303Z,-0.13
2023-02-03T04:48:11.039Z,-0.28
2023-02-03T04:50:39.186Z,-0.28
2023-02-03T04:53:11.572Z,-0.38
2023-02-03T04:55:41.227Z,-0.35
2023-02-03T05:06:58.692Z,-0.36
2023-02-03T05:09:27.362Z,-0.32
2023-02-03T05:14:55.505Z,-0.29
2023-02-03T05:17:25.184Z,-0.31
2023-02-03T05:19:53.067Z,-0.28
2023-02-03T05:22:24.524Z,-0.36
2023-02-03T05:24:53.264Z,-0.28
2023-02-03T05:27:21.121Z,-0.27
2023-02-03T05:29:50.481Z,-0.19
2023-02-03T05:32:19.450Z,-0.23
2023-02-03T05:34:48.573Z,-0.13
2023-02-03T05:37:17.222Z,-0.24
2023-02-03T05:39:50.111Z,-0.13
2023-02-03T05:42:19.290Z,0.06
2023-02-03T05:44:47.068Z,0.04
2023-02-03T05:47:15.578Z,-0.10
2023-02-03T05:49:45.076Z,-0.12
2023-02-03T05:52:13.659Z,-0.12
2023-02-03T05:54:44.865Z,0.02
2023-02-03T05:57:13.839Z,0.00
2023-02-03T05:59:41.618Z,-0.09
2023-02-03T06:02:09.759Z,0.00
2023-02-03T06:04:38.278Z,0.06
2023-02-03T06:15:57.543Z,0.34
2023-02-03T06:21:33.739Z,0.50
2023-02-03T06:24:17.901Z,0.64
2023-02-03T06:27:01.218Z,0.74
2023-02-03T06:29:31.651Z,0.84
2023-02-03T06:31:59.629Z,0.75
2023-02-03T06:34:27.914Z,0.90
2023-02-03T06:36:55.941Z,1.03
2023-02-03T06:39:24.128Z,1.06
2023-02-03T06:41:52.672Z,1.07
2023-02-03T06:44:20.847Z,1.11
2023-02-03T06:46:51.020Z,1.23
2023-02-03T06:49:20.151Z,1.32
2023-02-03T06:51:48.819Z,1.36
2023-02-03T06:54:16.549Z,1.37
2023-02-03T06:56:45.304Z,1.40
2023-02-03T06:59:14.001Z,1.40
2023-02-03T07:01:42.623Z,1.53
2023-02-03T07:04:10.935Z,1.62
2023-02-03T07:40:58.368Z,2.70
2023-02-03T07:43:26.654Z,2.40
2023-02-03T07:45:54.425Z,2.66
2023-02-03T07:48:26.368Z,2.71
2023-02-03T07:50:54.862Z,2.96
2023-02-03T07:53:23.372Z,3.16
2023-02-03T07:55:51.701Z,3.15
2023-02-03T07:58:19.726Z,3.33
2023-02-03T08:00:47.675Z,3.47
2023-02-03T08:03:15.668Z,3.67
2023-02-03T08:11:49.848Z,3.49
2023-02-03T08:23:53.463Z,4.54
2023-02-03T08:26:21.939Z,4.26
2023-02-03T08:28:50.924Z,4.78
2023-02-03T08:31:19.016Z,4.68
2023-02-03T08:33:47.309Z,4.98
2023-02-03T08:36:19.982Z,5.05
2023-02-03T08:57:02.442Z,5.32
2023-02-03T08:59:31.415Z,5.69
2023-02-03T09:02:00.149Z,5.80
2023-02-03T09:04:28.982Z,5.83
2023-02-03T09:06:56.950Z,6.10
2023-02-03T09:09:26.715Z,6.46
2023-02-03T09:12:00.975Z,6.43
2023-02-03T09:14:31.152Z,6.71
2023-02-03T09:17:01.500Z,6.96
2023-02-03T09:19:30.279Z,6.75
2023-02-03T09:41:38.312Z,7.51
2023-02-03T09:44:18.874Z,7.35
2023-02-03T09:47:03.253Z,7.46
2023-02-03T09:49:41.332Z,7.83
2023-02-03T09:52:15.632Z,8.07
2023-02-03T09:54:44.621Z,7.76
2023-02-03T09:57:21.504Z,7.79
2023-02-03T09:59:50.945Z,7.57
2023-02-03T10:02:44.341Z,8.03
2023-02-03T10:05:26.517Z,7.90
2023-02-03T10:08:12.816Z,8.13
2023-02-03T10:11:10.144Z,8.28
2023-02-03T10:16:59.749Z,8.08
2023-02-03T10:19:48.073Z,8.12
2023-02-03T10:22:21.573Z,8.16
2023-02-03T10:25:00.518Z,8.08
2023-02-03T10:27:34.202Z,8.35
2023-02-03T10:30:12.624Z,8.76
2023-02-03T10:32:40.999Z,8.79
2023-02-03T10:35:13.264Z,8.89
2023-02-03T10:58:32.324Z,7.57
2023-02-03T11:01:14.304Z,7.54
2023-02-03T11:04:07.326Z,8.41
2023-02-03T11:06:56.217Z,8.67
2023-02-03T11:09:40.788Z,7.93
2023-02-03T11:12:21.273Z,7.94
2023-02-03T11:56:40.371Z,9.24
2023-02-03T12:06:12.633Z,8.89
2023-02-03T12:21:43.625Z,9.32
2023-02-03T12:24:28.753Z,9.33
2023-02-03T12:27:24.215Z,9.20
2023-02-03T12:30:00.343Z,9.07
2023-02-03T12:32:38.865Z,8.97
2023-02-03T12:35:22.331Z,9.00
2023-02-03T13:09:45.893Z,9.92
2023-02-03T13:12:36.586Z,9.62
2023-02-03T13:15:30.590Z,9.91
2023-02-03T13:18:22.237Z,10.20
2023-02-03T13:20:50.657Z,10.23
2023-02-03T13:23:19.147Z,10.32
2023-02-03T13:26:24.915Z,10.56
2023-02-03T13:29:20.751Z,10.97
2023-02-03T13:32:19.646Z,10.48
2023-02-03T13:35:33.539Z,10.01
2023-02-03T13:38:31.306Z,9.93
2023-02-03T13:41:28.758Z,9.56
2023-02-03T13:43:59.262Z,9.13
2023-02-03T13:46:31.852Z,8.65
2023-02-03T13:49:03.461Z,8.41
2023-02-03T13:51:46.753Z,8.25
2023-02-03T13:54:23.728Z,7.80
2023-02-03T13:57:02.651Z,7.67
2023-02-03T13:59:46.820Z,7.58
2023-02-03T14:02:24.071Z,7.51
2023-02-03T14:04:57.638Z,7.48
2023-02-03T14:07:38.473Z,7.09
2023-02-03T14:10:15.379Z,7.12
2023-02-03T14:12:52.607Z,7.03
2023-02-03T14:15:28.979Z,6.97
2023-02-03T14:18:03.566Z,7.02
2023-02-03T14:20:40.540Z,6.85
2023-02-03T14:23:15.788Z,6.77
2023-02-03T14:25:49.484Z,6.75
2023-02-03T14:28:44.305Z,6.68
2023-02-03T14:31:18.392Z,6.47
2023-02-03T14:33:50.690Z,6.49
2023-02-03T14:36:55.501Z,6.44
2023-02-03T14:39:41.465Z,6.20
2023-02-03T14:42:13.989Z,5.96
2023-02-03T14:45:16.970Z,5.65
2023-02-03T14:48:00.221Z,5.62
2023-02-03T14:50:46.794Z,5.66
2023-02-03T14:54:01.781Z,5.56
2023-02-03T14:57:16.134Z,5.51
2023-02-03T15:00:04.345Z,5.23
2023-02-03T15:02:34.805Z,5.17
2023-02-03T15:05:15.287Z,5.05
2023-02-03T15:07:49.630Z,4.94
2023-02-03T15:10:31.281Z,4.78
2023-02-03T15:12:59.266Z,4.82
2023-02-03T15:15:36.448Z,4.67
2023-02-03T15:18:37.010Z,4.55
2023-02-03T15:21:06.498Z,4.60
2023-02-03T15:23:43.383Z,4.56
2023-02-03T15:26:19.786Z,4.63
2023-02-03T15:28:58.913Z,4.62
2023-02-03T15:31:32.578Z,4.46
2023-02-03T15:34:12.758Z,4.40
2023-02-03T15:36:48.387Z,4.25
2023-02-03T15:39:40.691Z,4.05
2023-02-03T16:38:09.008Z,3.22
2023-02-03T16:41:00.748Z,3.28
2023-02-03T16:43:47.516Z,3.32
2023-02-03T16:49:38.521Z,3.26
2023-02-03T16:52:08.842Z,3.34
2023-02-03T16:54:37.419Z,3.22
2023-02-03T16:57:06.759Z,3.27
2023-02-03T16:59:36.383Z,3.29
2023-02-03T17:12:38.435Z,3.23
2023-02-03T17:18:09.059Z,3.16
2023-02-03T17:20:37.830Z,3.13
2023-02-03T17:23:06.049Z,3.10
2023-02-03T17:25:37.632Z,3.16
2023-02-03T17:28:09.577Z,3.13
2023-02-03T17:30:38.074Z,3.03
2023-02-03T17:33:14.710Z,3.16
2023-02-03T17:35:44.670Z,3.03
2023-02-03T17:38:14.935Z,3.01
2023-02-03T18:05:03.456Z,2.63
2023-02-03T18:10:29.375Z,2.52
2023-02-03T18:12:57.942Z,2.54
2023-02-03T18:39:48.453Z,2.28
2023-02-03T18:42:16.445Z,2.28
2023-02-03T18:44:44.870Z,2.24
2023-02-03T18:47:13.296Z,2.20
2023-02-03T18:49:45.900Z,2.10
2023-02-03T18:52:13.808Z,2.15
2023-02-03T18:54:42.234Z,2.36
2023-02-03T20:13:30.682Z,1.66
2023-02-03T20:25:08.898Z,1.86
2023-02-03T20:39:45.324Z,1.64
2023-02-03T20:42:17.206Z,1.59
2023-02-03T20:44:45.869Z,1.75
2023-02-03T20:47:20.361Z,1.71
2023-02-03T20:49:50.231Z,1.77
2023-02-03T20:52:20.981Z,2.01
2023-02-03T20:54:49.569Z,1.83
2023-02-03T20:57:20.231Z,1.90
2023-02-03T20:59:49.074Z,1.73
2023-02-03T21:02:34.674Z,1.92
2023-02-03T21:05:27.947Z,1.79
2023-02-03T21:08:01.763Z,1.87
2023-02-03T21:10:30.251Z,1.79
2023-02-03T21:13:02.986Z,1.78
2023-02-03T21:15:34.652Z,1.91
2023-02-03T21:18:03.718Z,2.02
2023-02-03T21:20:36.263Z,1.82
2023-02-03T21:23:12.172Z,1.99
2023-02-03T21:25:40.691Z,1.90
2023-02-03T21:28:27.348Z,1.90
2023-02-03T21:30:57.921Z,1.89
2023-02-03T21:33:44.318Z,1.74
2023-02-03T21:36:16.799Z,1.79
2023-02-03T21:38:48.965Z,1.89
2023-02-03T21:41:19.529Z,2.00
2023-02-03T21:43:52.182Z,2.00
2023-02-03T21:46:26.400Z,2.06
2023-02-03T21:49:01.199Z,2.00
2023-02-03T21:54:48.322Z,2.08
2023-02-03T22:04:00.514Z,1.84
2023-02-03T22:06:43.618Z,1.89
2023-02-03T22:09:17.981Z,1.86
2023-02-03T22:12:05.845Z,1.79
2023-02-03T22:14:34.288Z,1.78
2023-02-03T22:17:02.036Z,1.81
2023-02-03T22:19:32.523Z,1.99
2023-02-03T22:33:38.410Z,1.89
2023-02-03T22:39:18.478Z,2.15
2023-02-03T22:41:46.650Z,2.24
2023-02-03T22:47:04.647Z,2.26
2023-02-03T22:49:33.208Z,2.16
2023-02-03T22:52:01.248Z,2.15
2023-02-03T22:54:30.832Z,1.87
2023-02-03T22:56:58.836Z,1.97
2023-02-03T22:59:27.296Z,2.02
2023-02-03T23:01:55.041Z,1.97
2023-02-03T23:04:24.655Z,1.75
2023-02-03T23:06:52.882Z,1.76
2023-02-03T23:12:17.679Z,1.73
2023-02-03T23:14:47.060Z,1.81
2023-02-03T23:26:11.109Z,1.68
2023-02-03T23:28:41.114Z,1.77
2023-02-03T23:34:23.886Z,1.53
2023-02-03T23:36:53.444Z,1.56
2023-02-03T23:39:35.689Z,1.57
2023-02-03T23:42:03.385Z,1.66
2023-02-03T23:44:45.441Z,1.80
2023-02-03T23:47:13.880Z,1.83
2023-02-03T23:49:44.760Z,1.56
2023-02-03T23:52:12.538Z,1.65
2023-02-03T23:54:43.741Z,1.65
2023-02-03T23:57:13.338Z,1.70
2023-02-03T23:59:41.186Z,1.60
